EST,Max TemperatureF,Mean TemperatureF,Min TemperatureF,Max Dew PointF,MeanDew PointF,Min DewpointF,Max Humidity, Mean Humidity, Min Humidity, Max Sea Level PressureIn, Mean Sea Level PressureIn, Min Sea Level PressureIn, Max VisibilityMiles, Mean VisibilityMiles, Min VisibilityMiles, Max Wind SpeedMPH, Mean Wind SpeedMPH, Max Gust SpeedMPH,PrecipitationIn, CloudCover, Events, WindDirDegrees
2012-12-1,36,30,23,31,20,12,82,73,59,30.58,30.52,30.43,10,6,1,15,10,21,0.00,8,Snow,83
2012-12-2,51,43,35,44,38,31,93,83,59,30.44,30.22,30.04,10,8,3,15,8,33,0.13,6,Rain,112
2012-12-3,51,42,33,45,38,30,100,75,61,30.30,30.18,30.02,10,9,2,15,5,25,0.01,7,,272
2012-12-4,60,44,30,50,42,28,92,81,64,30.29,30.15,29.92,10,8,5,17,6,29,0.00,6,,115
2012-12-5,60,44,27,51,30,10,93,64,45,30.23,30.02,29.86,10,9,3,16,8,29,0.21,7,Rain,277
2012-12-6,36,28,21,18,14,11,85,61,43,30.39,30.31,30.24,10,10,10,10,6,20,0.00,2,,259
2012-12-7,39,32,24,36,27,16,93,76,55,30.25,30.11,30.03,10,8,2,9,3,,0.07,5,Rain,107
2012-12-8,46,40,35,42,37,34,100,90,81,30.03,29.93,29.83,10,6,1,8,1,,0.20,8,Rain,103
2012-12-9,46,42,37,38,29,23,82,65,44,30.27,30.17,30.02,10,10,6,21,9,29,0.08,6,Rain,253
2012-12-10,55,47,39,50,44,33,100,88,77,30.05,29.65,29.50,10,7,2,15,7,29,0.17,8,Rain,80
2012-12-11,42,35,28,36,25,16,93,66,50,30.19,29.90,29.62,10,10,5,14,9,23,0.05,6,Rain,279
2012-12-12,39,30,21,21,19,17,85,68,46,30.44,30.35,30.21,10,10,7,9,4,20,0.00,2,,269
2012-12-13,39,29,19,24,19,15,89,74,40,30.50,30.41,30.31,10,9,6,5,1,,0.00,1,,300
2012-12-14,45,31,17,27,21,12,88,65,37,30.28,30.20,30.13,10,9,6,16,3,23,0.00,4,,265
2012-12-15,39,32,26,25,20,10,81,58,38,30.32,30.27,30.20,10,10,10,12,5,18,0.00,2,,271
2012-12-16,33,30,28,26,21,14,79,68,46,30.25,30.15,30.03,10,9,5,18,11,33,0.00,8,Snow,84
2012-12-17,39,36,33,34,28,26,83,78,75,30.00,29.93,29.75,10,7,3,22,18,31,0.21,8,Rain,102
2012-12-18,44,40,37,40,36,31,96,84,76,29.71,29.53,29.44,10,7,2,23,15,30,0.47,8,Rain,113
2012-12-19,39,37,35,31,28,24,82,68,60,30.10,29.78,29.54,10,10,8,18,13,29,0.00,8,,264
2012-12-20,41,32,24,30,25,21,87,69,49,30.24,30.08,29.90,10,8,1,16,4,26,0.09,5,Snow,101
2012-12-21,50,42,35,43,34,25,87,78,64,29.83,29.26,28.97,10,7,1,26,15,40,0.43,8,Rain-Snow,132
2012-12-22,36,30,24,27,19,13,84,68,56,29.75,29.43,29.20,10,4,0,21,12,37,0.05,8,Fog-Snow,272
2012-12-23,34,30,25,25,17,13,82,60,46,29.88,29.83,29.74,10,10,6,14,9,24,0.00,6,Snow,270
2012-12-24,34,30,25,20,16,12,75,57,44,30.08,30.01,29.89,10,10,9,18,9,25,0.00,4,Snow,279
2012-12-25,30,26,19,23,18,11,81,70,54,30.31,30.11,29.95,10,8,2,10,5,,0.01,6,Snow,259
2012-12-26,30,21,12,27,16,6,86,72,42,30.37,30.09,29.75,10,6,0,18,7,34,0.07,3,Fog-Snow,95
2012-12-27,33,28,24,29,24,18,87,79,70,29.78,29.56,29.45,10,2,0,25,13,37,0.40,8,Fog-Snow,149
2012-12-28,30,26,23,21,18,14,81,72,64,30.07,29.98,29.79,10,10,6,15,10,23,0.00,8,Snow,268
2012-12-29,30,27,24,25,22,19,86,78,61,30.05,29.70,29.52,10,4,0,14,4,18,0.06,8,Fog-Snow,117
2012-12-30,24,20,17,19,12,4,86,71,50,30.10,29.77,29.55,10,5,1,21,10,34,0.01,6,Snow,274
2012-12-31,33,23,16,20,15,4,78,68,56,30.10,29.97,29.78,10,10,7,13,8,21,0.00,6,,275